sensor_id;sensor_type;location;lat;lon;timestamp;temperature;humidity
15111;DHT22;7656;51.954;7.998;2022-10-16T00:02:12;14.70;99.90
15111;DHT22;7656;51.954;7.998;2022-10-16T00:06:33;14.70;99.90
15111;DHT22;7656;51.954;7.998;2022-10-16T00:11:06;14.70;99.90
15111;DHT22;7656;51.954;7.998;2022-10-16T00:15:29;14.70;99.90
15111;DHT22;7656;51.954;7.998;2022-10-16T00:19:50;14.80;99.90
15111;DHT22;7656;51.954;7.998;2022-10-16T00:24:12;14.70;99.90
15111;DHT22;7656;51.954;7.998;2022-10-16T00:28:33;14.60;99.90
15111;DHT22;7656;51.954;7.998;2022-10-16T00:32:56;14.60;99.90
15111;DHT22;7656;51.954;7.998;2022-10-16T00:37:17;14.70;99.90
15111;DHT22;7656;51.954;7.998;2022-10-16T00:41:38;14.70;99.90
15111;DHT22;7656;51.954;7.998;2022-10-16T00:46:00;14.70;99.90
15111;DHT22;7656;51.954;7.998;2022-10-16T00:50:33;14.70;99.90
15111;DHT22;7656;51.954;7.998;2022-10-16T00:54:56;14.60;99.90
15111;DHT22;7656;51.954;7.998;2022-10-16T00:59:18;14.50;99.90
15111;DHT22;7656;51.954;7.998;2022-10-16T01:03:41;14.50;99.90
15111;DHT22;7656;51.954;7.998;2022-10-16T01:08:13;14.50;99.90
15111;DHT22;7656;51.954;7.998;2022-10-16T01:13:01;14.60;99.90
15111;DHT22;7656;51.954;7.998;2022-10-16T01:17:34;14.60;99.90
15111;DHT22;7656;51.954;7.998;2022-10-16T01:22:09;14.50;99.90
15111;DHT22;7656;51.954;7.998;2022-10-16T01:31:33;14.50;99.90
15111;DHT22;7656;51.954;7.998;2022-10-16T01:36:01;14.50;99.90
15111;DHT22;7656;51.954;7.998;2022-10-16T01:40:26;14.40;99.90
15111;DHT22;7656;51.954;7.998;2022-10-16T01:44:50;14.20;99.90
15111;DHT22;7656;51.954;7.998;2022-10-16T01:49:13;14.20;99.90
15111;DHT22;7656;51.954;7.998;2022-10-16T01:53:34;14.20;99.90
15111;DHT22;7656;51.954;7.998;2022-10-16T01:57:57;14.20;99.90
15111;DHT22;7656;51.954;7.998;2022-10-16T02:02:21;14.20;99.90
15111;DHT22;7656;51.954;7.998;2022-10-16T02:06:43;13.90;99.90
15111;DHT22;7656;51.954;7.998;2022-10-16T02:11:04;13.90;99.90
15111;DHT22;7656;51.954;7.998;2022-10-16T02:15:26;13.90;99.90
15111;DHT22;7656;51.954;7.998;2022-10-16T02:19:49;13.70;99.90
15111;DHT22;7656;51.954;7.998;2022-10-16T02:28:59;13.70;99.90
15111;DHT22;7656;51.954;7.998;2022-10-16T02:33:26;13.70;99.90
15111;DHT22;7656;51.954;7.998;2022-10-16T02:37:49;13.80;99.90
15111;DHT22;7656;51.954;7.998;2022-10-16T02:42:14;13.80;99.90
15111;DHT22;7656;51.954;7.998;2022-10-16T02:46:35;13.70;99.90
15111;DHT22;7656;51.954;7.998;2022-10-16T02:50:57;13.50;99.90
15111;DHT22;7656;51.954;7.998;2022-10-16T02:55:18;13.60;99.90
15111;DHT22;7656;51.954;7.998;2022-10-16T02:59:39;13.60;99.90
15111;DHT22;7656;51.954;7.998;2022-10-16T03:04:00;13.70;99.90
15111;DHT22;7656;51.954;7.998;2022-10-16T03:08:22;13.50;99.90
15111;DHT22;7656;51.954;7.998;2022-10-16T03:12:45;13.50;99.90
15111;DHT22;7656;51.954;7.998;2022-10-16T03:17:07;13.40;99.90
15111;DHT22;7656;51.954;7.998;2022-10-16T03:21:28;13.30;99.90
15111;DHT22;7656;51.954;7.998;2022-10-16T03:25:49;13.50;99.90
15111;DHT22;7656;51.954;7.998;2022-10-16T03:30:10;13.30;99.90
15111;DHT22;7656;51.954;7.998;2022-10-16T03:34:32;13.40;99.90
15111;DHT22;7656;51.954;7.998;2022-10-16T03:38:53;13.60;99.90
15111;DHT22;7656;51.954;7.998;2022-10-16T03:43:14;13.60;99.90
15111;DHT22;7656;51.954;7.998;2022-10-16T03:47:36;13.70;99.90
15111;DHT22;7656;51.954;7.998;2022-10-16T03:51:57;13.80;99.90
15111;DHT22;7656;51.954;7.998;2022-10-16T03:56:18;13.90;99.90
15111;DHT22;7656;51.954;7.998;2022-10-16T04:00:44;13.90;99.90
15111;DHT22;7656;51.954;7.998;2022-10-16T04:05:06;13.60;99.90
15111;DHT22;7656;51.954;7.998;2022-10-16T04:09:27;13.70;99.90
15111;DHT22;7656;51.954;7.998;2022-10-16T04:13:48;13.80;99.90
15111;DHT22;7656;51.954;7.998;2022-10-16T04:18:10;14.00;99.90
15111;DHT22;7656;51.954;7.998;2022-10-16T04:22:31;14.00;99.90
15111;DHT22;7656;51.954;7.998;2022-10-16T04:26:52;14.10;99.90
15111;DHT22;7656;51.954;7.998;2022-10-16T04:31:13;13.90;99.90
15111;DHT22;7656;51.954;7.998;2022-10-16T04:35:34;14.00;99.90
15111;DHT22;7656;51.954;7.998;2022-10-16T04:39:55;14.10;99.90
15111;DHT22;7656;51.954;7.998;2022-10-16T04:44:16;13.90;99.90
15111;DHT22;7656;51.954;7.998;2022-10-16T04:48:37;13.90;99.90
15111;DHT22;7656;51.954;7.998;2022-10-16T04:52:58;14.00;99.90
15111;DHT22;7656;51.954;7.998;2022-10-16T04:57:20;14.20;99.90
15111;DHT22;7656;51.954;7.998;2022-10-16T05:01:41;14.20;99.90
15111;DHT22;7656;51.954;7.998;2022-10-16T05:06:05;14.20;99.90
15111;DHT22;7656;51.954;7.998;2022-10-16T05:10:27;14.30;99.90
15111;DHT22;7656;51.954;7.998;2022-10-16T05:14:48;14.10;99.90
15111;DHT22;7656;51.954;7.998;2022-10-16T05:19:10;14.00;99.90
15111;DHT22;7656;51.954;7.998;2022-10-16T05:23:31;13.80;99.90
15111;DHT22;7656;51.954;7.998;2022-10-16T05:27:52;13.80;99.90
15111;DHT22;7656;51.954;7.998;2022-10-16T05:32:15;13.80;99.90
15111;DHT22;7656;51.954;7.998;2022-10-16T05:36:36;13.90;99.90
15111;DHT22;7656;51.954;7.998;2022-10-16T05:40:58;14.10;99.90
15111;DHT22;7656;51.954;7.998;2022-10-16T05:45:19;14.00;99.90
15111;DHT22;7656;51.954;7.998;2022-10-16T05:49:40;14.00;99.90
15111;DHT22;7656;51.954;7.998;2022-10-16T05:54:01;13.90;99.90
15111;DHT22;7656;51.954;7.998;2022-10-16T05:58:23;14.00;99.90
15111;DHT22;7656;51.954;7.998;2022-10-16T06:02:45;14.10;99.90
15111;DHT22;7656;51.954;7.998;2022-10-16T06:07:06;14.00;99.90
15111;DHT22;7656;51.954;7.998;2022-10-16T06:11:31;14.20;99.90
15111;DHT22;7656;51.954;7.998;2022-10-16T06:15:53;14.30;99.90
15111;DHT22;7656;51.954;7.998;2022-10-16T06:20:14;14.40;99.90
15111;DHT22;7656;51.954;7.998;2022-10-16T06:24:35;14.50;99.90
15111;DHT22;7656;51.954;7.998;2022-10-16T06:28:58;14.60;99.90
15111;DHT22;7656;51.954;7.998;2022-10-16T06:33:20;14.50;99.90
15111;DHT22;7656;51.954;7.998;2022-10-16T06:37:41;14.50;99.90
15111;DHT22;7656;51.954;7.998;2022-10-16T06:42:02;14.80;99.90
15111;DHT22;7656;51.954;7.998;2022-10-16T06:46:30;15.00;99.90
15111;DHT22;7656;51.954;7.998;2022-10-16T06:51:03;15.20;99.90
15111;DHT22;7656;51.954;7.998;2022-10-16T06:55:25;15.50;99.90
15111;DHT22;7656;51.954;7.998;2022-10-16T06:59:46;15.70;99.90
15111;DHT22;7656;51.954;7.998;2022-10-16T07:04:07;16.00;99.90
15111;DHT22;7656;51.954;7.998;2022-10-16T07:08:31;16.30;99.90
15111;DHT22;7656;51.954;7.998;2022-10-16T07:12:56;16.50;99.90
15111;DHT22;7656;51.954;7.998;2022-10-16T07:17:17;16.70;99.90
15111;DHT22;7656;51.954;7.998;2022-10-16T07:21:38;17.70;99.90
15111;DHT22;7656;51.954;7.998;2022-10-16T07:26:00;18.80;99.90
15111;DHT22;7656;51.954;7.998;2022-10-16T07:30:21;19.60;99.90
15111;DHT22;7656;51.954;7.998;2022-10-16T07:34:42;21.20;99.90
15111;DHT22;7656;51.954;7.998;2022-10-16T07:39:03;22.70;99.90
15111;DHT22;7656;51.954;7.998;2022-10-16T07:43:26;23.20;99.90
15111;DHT22;7656;51.954;7.998;2022-10-16T07:47:47;21.70;99.90
15111;DHT22;7656;51.954;7.998;2022-10-16T09:30:38;34.00;69.90
15111;DHT22;7656;51.954;7.998;2022-10-16T09:35:00;34.00;71.10
15111;DHT22;7656;51.954;7.998;2022-10-16T09:39:21;33.80;70.40
15111;DHT22;7656;51.954;7.998;2022-10-16T09:48:17;31.20;74.80
15111;DHT22;7656;51.954;7.998;2022-10-16T09:52:40;30.10;78.70
15111;DHT22;7656;51.954;7.998;2022-10-16T09:57:12;29.30;80.20
15111;DHT22;7656;51.954;7.998;2022-10-16T10:01:40;27.90;82.00
15111;DHT22;7656;51.954;7.998;2022-10-16T10:10:48;25.50;90.00
15111;DHT22;7656;51.954;7.998;2022-10-16T10:15:11;24.90;90.80
15111;DHT22;7656;51.954;7.998;2022-10-16T10:24:13;24.20;92.80
15111;DHT22;7656;51.954;7.998;2022-10-16T10:29:08;24.30;92.80
15111;DHT22;7656;51.954;7.998;2022-10-16T10:33:52;25.60;91.40
15111;DHT22;7656;51.954;7.998;2022-10-16T10:38:44;24.50;92.30
15111;DHT22;7656;51.954;7.998;2022-10-16T10:43:20;23.20;94.20
15111;DHT22;7656;51.954;7.998;2022-10-16T10:57:21;22.20;97.20
15111;DHT22;7656;51.954;7.998;2022-10-16T11:06:15;21.70;99.20
15111;DHT22;7656;51.954;7.998;2022-10-16T11:10:58;22.00;99.40
15111;DHT22;7656;51.954;7.998;2022-10-16T11:15:34;22.10;98.80
15111;DHT22;7656;51.954;7.998;2022-10-16T11:20:18;22.20;99.70
15111;DHT22;7656;51.954;7.998;2022-10-16T11:24:48;22.20;99.90
15111;DHT22;7656;51.954;7.998;2022-10-16T11:29:28;21.80;99.90
15111;DHT22;7656;51.954;7.998;2022-10-16T11:38:55;21.30;99.90
15111;DHT22;7656;51.954;7.998;2022-10-16T11:43:25;21.30;99.90
15111;DHT22;7656;51.954;7.998;2022-10-16T11:58:33;21.40;99.90
15111;DHT22;7656;51.954;7.998;2022-10-16T12:07:41;22.40;99.90
15111;DHT22;7656;51.954;7.998;2022-10-16T12:12:44;21.90;99.90
15111;DHT22;7656;51.954;7.998;2022-10-16T12:17:37;22.40;99.90
15111;DHT22;7656;51.954;7.998;2022-10-16T12:22:00;23.60;99.90
15111;DHT22;7656;51.954;7.998;2022-10-16T12:26:38;25.60;96.70
15111;DHT22;7656;51.954;7.998;2022-10-16T12:31:07;26.80;95.10
15111;DHT22;7656;51.954;7.998;2022-10-16T12:35:33;27.60;93.90
15111;DHT22;7656;51.954;7.998;2022-10-16T12:39:56;28.90;91.10
15111;DHT22;7656;51.954;7.998;2022-10-16T12:44:25;29.10;90.80
15111;DHT22;7656;51.954;7.998;2022-10-16T12:48:49;29.80;89.30
15111;DHT22;7656;51.954;7.998;2022-10-16T12:53:20;31.20;85.00
15111;DHT22;7656;51.954;7.998;2022-10-16T13:17:16;29.20;85.10
15111;DHT22;7656;51.954;7.998;2022-10-16T13:22:05;29.50;82.80
15111;DHT22;7656;51.954;7.998;2022-10-16T13:31:20;29.20;82.80
15111;DHT22;7656;51.954;7.998;2022-10-16T13:35:51;29.20;84.40
15111;DHT22;7656;51.954;7.998;2022-10-16T13:40:23;27.10;89.40
15111;DHT22;7656;51.954;7.998;2022-10-16T13:44:50;25.60;92.00
15111;DHT22;7656;51.954;7.998;2022-10-16T13:49:17;25.90;92.20
15111;DHT22;7656;51.954;7.998;2022-10-16T13:53:40;27.00;91.40
15111;DHT22;7656;51.954;7.998;2022-10-16T13:58:12;27.50;90.60
15111;DHT22;7656;51.954;7.998;2022-10-16T14:02:36;27.70;90.00
15111;DHT22;7656;51.954;7.998;2022-10-16T14:06:58;28.00;89.30
15111;DHT22;7656;51.954;7.998;2022-10-16T14:11:22;27.70;89.00
15111;DHT22;7656;51.954;7.998;2022-10-16T14:15:49;27.50;90.10
15111;DHT22;7656;51.954;7.998;2022-10-16T14:20:14;27.10;90.90
15111;DHT22;7656;51.954;7.998;2022-10-16T14:24:38;27.30;90.80
15111;DHT22;7656;51.954;7.998;2022-10-16T14:29:19;27.60;90.40
15111;DHT22;7656;51.954;7.998;2022-10-16T14:33:40;26.10;91.50
15111;DHT22;7656;51.954;7.998;2022-10-16T14:38:03;25.00;93.10
15111;DHT22;7656;51.954;7.998;2022-10-16T14:42:26;24.40;93.60
15111;DHT22;7656;51.954;7.998;2022-10-16T14:46:48;23.70;95.20
15111;DHT22;7656;51.954;7.998;2022-10-16T14:51:14;23.20;96.00
15111;DHT22;7656;51.954;7.998;2022-10-16T14:55:37;23.10;97.20
15111;DHT22;7656;51.954;7.998;2022-10-16T14:59:59;23.30;97.10
15111;DHT22;7656;51.954;7.998;2022-10-16T15:04:20;23.60;96.60
15111;DHT22;7656;51.954;7.998;2022-10-16T15:08:41;23.50;96.50
15111;DHT22;7656;51.954;7.998;2022-10-16T15:13:02;23.10;97.00
15111;DHT22;7656;51.954;7.998;2022-10-16T15:17:24;23.10;98.20
15111;DHT22;7656;51.954;7.998;2022-10-16T15:21:45;23.00;97.80
15111;DHT22;7656;51.954;7.998;2022-10-16T15:26:07;22.80;98.20
15111;DHT22;7656;51.954;7.998;2022-10-16T15:30:29;22.50;98.80
15111;DHT22;7656;51.954;7.998;2022-10-16T15:34:50;22.20;99.60
15111;DHT22;7656;51.954;7.998;2022-10-16T15:39:19;21.90;99.90
15111;DHT22;7656;51.954;7.998;2022-10-16T15:43:40;21.70;99.90
15111;DHT22;7656;51.954;7.998;2022-10-16T15:48:01;21.60;99.90
15111;DHT22;7656;51.954;7.998;2022-10-16T15:52:23;21.40;99.90
15111;DHT22;7656;51.954;7.998;2022-10-16T15:56:45;21.20;99.90
15111;DHT22;7656;51.954;7.998;2022-10-16T16:01:06;21.00;99.90
15111;DHT22;7656;51.954;7.998;2022-10-16T16:05:30;21.00;99.90
15111;DHT22;7656;51.954;7.998;2022-10-16T16:09:51;20.70;99.90
15111;DHT22;7656;51.954;7.998;2022-10-16T16:14:13;20.40;99.90
15111;DHT22;7656;51.954;7.998;2022-10-16T16:18:34;20.30;99.90
15111;DHT22;7656;51.954;7.998;2022-10-16T16:22:56;20.10;99.90
15111;DHT22;7656;51.954;7.998;2022-10-16T16:27:17;20.00;99.90
15111;DHT22;7656;51.954;7.998;2022-10-16T16:31:40;19.80;99.90
15111;DHT22;7656;51.954;7.998;2022-10-16T16:36:04;19.10;99.90
15111;DHT22;7656;51.954;7.998;2022-10-16T16:40:27;19.10;99.90
15111;DHT22;7656;51.954;7.998;2022-10-16T16:44:48;19.00;99.90
15111;DHT22;7656;51.954;7.998;2022-10-16T16:49:12;18.90;99.90
15111;DHT22;7656;51.954;7.998;2022-10-16T16:53:36;19.00;99.90
15111;DHT22;7656;51.954;7.998;2022-10-16T16:57:57;18.80;99.90
15111;DHT22;7656;51.954;7.998;2022-10-16T17:02:19;18.80;99.90
15111;DHT22;7656;51.954;7.998;2022-10-16T17:06:40;18.70;99.90
15111;DHT22;7656;51.954;7.998;2022-10-16T17:11:02;18.50;99.90
15111;DHT22;7656;51.954;7.998;2022-10-16T17:15:24;18.20;99.90
15111;DHT22;7656;51.954;7.998;2022-10-16T17:19:45;18.00;99.90
15111;DHT22;7656;51.954;7.998;2022-10-16T17:24:06;18.00;99.90
15111;DHT22;7656;51.954;7.998;2022-10-16T17:28:27;17.50;99.90
15111;DHT22;7656;51.954;7.998;2022-10-16T17:32:48;17.40;99.90
15111;DHT22;7656;51.954;7.998;2022-10-16T17:37:10;17.40;99.90
15111;DHT22;7656;51.954;7.998;2022-10-16T17:41:31;17.40;99.90
15111;DHT22;7656;51.954;7.998;2022-10-16T17:45:53;17.20;99.90
15111;DHT22;7656;51.954;7.998;2022-10-16T17:50:14;17.00;99.90
15111;DHT22;7656;51.954;7.998;2022-10-16T17:54:35;16.90;99.90
15111;DHT22;7656;51.954;7.998;2022-10-16T17:58:59;16.90;99.90
15111;DHT22;7656;51.954;7.998;2022-10-16T18:03:21;17.10;99.90
15111;DHT22;7656;51.954;7.998;2022-10-16T18:07:42;17.10;99.90
15111;DHT22;7656;51.954;7.998;2022-10-16T18:12:04;17.10;99.90
15111;DHT22;7656;51.954;7.998;2022-10-16T18:16:27;16.90;99.90
15111;DHT22;7656;51.954;7.998;2022-10-16T18:21:00;17.00;99.90
15111;DHT22;7656;51.954;7.998;2022-10-16T18:25:22;16.90;99.90
15111;DHT22;7656;51.954;7.998;2022-10-16T18:29:43;17.00;99.90
15111;DHT22;7656;51.954;7.998;2022-10-16T18:34:05;16.50;99.90
15111;DHT22;7656;51.954;7.998;2022-10-16T18:38:26;16.40;99.90
15111;DHT22;7656;51.954;7.998;2022-10-16T18:42:48;16.40;99.90
15111;DHT22;7656;51.954;7.998;2022-10-16T18:47:10;16.00;99.90
15111;DHT22;7656;51.954;7.998;2022-10-16T18:51:33;16.00;99.90
15111;DHT22;7656;51.954;7.998;2022-10-16T18:55:55;16.20;99.90
15111;DHT22;7656;51.954;7.998;2022-10-16T19:00:17;15.90;99.90
15111;DHT22;7656;51.954;7.998;2022-10-16T19:04:38;15.50;99.90
15111;DHT22;7656;51.954;7.998;2022-10-16T19:08:59;15.60;99.90
15111;DHT22;7656;51.954;7.998;2022-10-16T19:13:20;15.90;99.90
15111;DHT22;7656;51.954;7.998;2022-10-16T19:17:41;15.50;99.90
15111;DHT22;7656;51.954;7.998;2022-10-16T19:22:03;15.10;99.90
15111;DHT22;7656;51.954;7.998;2022-10-16T19:26:50;15.10;99.90
15111;DHT22;7656;51.954;7.998;2022-10-16T19:31:13;15.40;99.90
15111;DHT22;7656;51.954;7.998;2022-10-16T19:35:36;15.50;99.90
15111;DHT22;7656;51.954;7.998;2022-10-16T19:39:57;15.50;99.90
15111;DHT22;7656;51.954;7.998;2022-10-16T19:44:18;15.70;99.90
15111;DHT22;7656;51.954;7.998;2022-10-16T19:48:40;15.60;99.90
15111;DHT22;7656;51.954;7.998;2022-10-16T19:53:01;15.60;99.90
15111;DHT22;7656;51.954;7.998;2022-10-16T19:57:23;15.70;99.90
15111;DHT22;7656;51.954;7.998;2022-10-16T20:01:46;15.80;99.90
15111;DHT22;7656;51.954;7.998;2022-10-16T20:06:07;15.70;99.90
15111;DHT22;7656;51.954;7.998;2022-10-16T20:10:29;15.90;99.90
15111;DHT22;7656;51.954;7.998;2022-10-16T20:14:50;16.10;99.90
15111;DHT22;7656;51.954;7.998;2022-10-16T20:19:11;16.10;99.90
15111;DHT22;7656;51.954;7.998;2022-10-16T20:23:32;16.10;99.90
15111;DHT22;7656;51.954;7.998;2022-10-16T20:27:53;16.00;99.90
15111;DHT22;7656;51.954;7.998;2022-10-16T20:32:15;16.20;99.90
15111;DHT22;7656;51.954;7.998;2022-10-16T20:36:37;16.30;99.90
15111;DHT22;7656;51.954;7.998;2022-10-16T20:41:03;16.50;99.90
15111;DHT22;7656;51.954;7.998;2022-10-16T20:45:25;16.30;99.90
15111;DHT22;7656;51.954;7.998;2022-10-16T20:49:46;15.90;99.90
15111;DHT22;7656;51.954;7.998;2022-10-16T20:54:09;16.00;99.90
15111;DHT22;7656;51.954;7.998;2022-10-16T20:58:31;16.00;99.90
15111;DHT22;7656;51.954;7.998;2022-10-16T21:02:52;16.00;99.90
15111;DHT22;7656;51.954;7.998;2022-10-16T21:07:14;16.10;99.90
15111;DHT22;7656;51.954;7.998;2022-10-16T21:11:37;16.20;99.90
15111;DHT22;7656;51.954;7.998;2022-10-16T21:15:58;16.20;99.90
15111;DHT22;7656;51.954;7.998;2022-10-16T21:20:22;16.20;99.90
15111;DHT22;7656;51.954;7.998;2022-10-16T21:24:43;16.30;99.90
15111;DHT22;7656;51.954;7.998;2022-10-16T21:29:05;16.30;99.90
15111;DHT22;7656;51.954;7.998;2022-10-16T21:33:27;16.40;99.90
15111;DHT22;7656;51.954;7.998;2022-10-16T21:37:49;16.30;99.90
15111;DHT22;7656;51.954;7.998;2022-10-16T21:42:10;16.30;99.90
15111;DHT22;7656;51.954;7.998;2022-10-16T21:46:33;16.30;99.90
15111;DHT22;7656;51.954;7.998;2022-10-16T21:50:55;16.30;99.90
15111;DHT22;7656;51.954;7.998;2022-10-16T21:55:17;16.40;99.90
15111;DHT22;7656;51.954;7.998;2022-10-16T21:59:38;16.30;99.90
15111;DHT22;7656;51.954;7.998;2022-10-16T22:03:59;16.30;99.90
15111;DHT22;7656;51.954;7.998;2022-10-16T22:08:20;16.20;99.90
15111;DHT22;7656;51.954;7.998;2022-10-16T22:12:41;16.10;99.90
15111;DHT22;7656;51.954;7.998;2022-10-16T22:17:02;15.90;99.90
15111;DHT22;7656;51.954;7.998;2022-10-16T22:21:25;15.90;99.90
15111;DHT22;7656;51.954;7.998;2022-10-16T22:25:47;15.90;99.90
15111;DHT22;7656;51.954;7.998;2022-10-16T22:30:09;15.80;99.90
15111;DHT22;7656;51.954;7.998;2022-10-16T22:34:31;15.80;99.90
15111;DHT22;7656;51.954;7.998;2022-10-16T22:38:52;15.70;99.90
15111;DHT22;7656;51.954;7.998;2022-10-16T22:43:14;15.50;99.90
15111;DHT22;7656;51.954;7.998;2022-10-16T22:47:35;15.30;99.90
15111;DHT22;7656;51.954;7.998;2022-10-16T22:51:56;15.20;99.90
15111;DHT22;7656;51.954;7.998;2022-10-16T22:56:19;14.90;99.90
15111;DHT22;7656;51.954;7.998;2022-10-16T23:00:41;14.60;99.90
15111;DHT22;7656;51.954;7.998;2022-10-16T23:05:08;14.40;99.90
15111;DHT22;7656;51.954;7.998;2022-10-16T23:09:30;14.20;99.90
15111;DHT22;7656;51.954;7.998;2022-10-16T23:13:51;14.00;99.90
15111;DHT22;7656;51.954;7.998;2022-10-16T23:18:12;14.00;99.90
15111;DHT22;7656;51.954;7.998;2022-10-16T23:22:33;13.90;99.90
15111;DHT22;7656;51.954;7.998;2022-10-16T23:26:55;13.80;99.90
15111;DHT22;7656;51.954;7.998;2022-10-16T23:31:16;13.60;99.90
15111;DHT22;7656;51.954;7.998;2022-10-16T23:35:39;13.70;99.90
15111;DHT22;7656;51.954;7.998;2022-10-16T23:40:00;13.60;99.90
15111;DHT22;7656;51.954;7.998;2022-10-16T23:44:21;13.50;99.90
15111;DHT22;7656;51.954;7.998;2022-10-16T23:48:43;13.40;99.90
15111;DHT22;7656;51.954;7.998;2022-10-16T23:53:04;13.60;99.90
15111;DHT22;7656;51.954;7.998;2022-10-16T23:57:25;13.60;99.90
